Terminal Aerodrome Forecast
Issued by NWS

Home | Current Version | Previous Version | Text Only | Print | Product List | Glossary On
Versions: 1 2 3 4 5 6 7 8 9 10 11 12 13 14 15 16 17 18 19 20 21 22 23 24 25
000
FTUS43 KGRR 251733
TAFLAN
TAF
KLAN 251733Z 2518/2618 27019G28KT P6SM -SN FEW026 BKN035 OVC045
     FM260000 27016G22KT P6SM -SHSN BKN035
     FM260600 26008KT P6SM OVC050=

USA.gov is the U.S. government's official web portal to all federal, state and local government web resources and services.